Time;durP1;ratioP1;P1;durP2;ratioP2;P2;SDS_P1;SDS_P2;PMS_P1;PMS_P2;Temp;Humidity;BMP_temperature;BMP_pressure;BME280_temperature;BME280_humidity;BME280_pressure;Samples;Min_cycle;Max_cycle;Signal;HPM_P1;HPM_P2
2021/12/06 00:00:35;;;;;;;32.60;19.97;;;8.00;99.90;;;;;;5089027;28;21063;-69
2021/12/06 00:03:06;;;;;;;29.67;20.40;;;8.00;99.90;;;;;;5090283;28;20446;-66
2021/12/06 00:05:34;;;;;;;30.30;19.73;;;7.70;99.90;;;;;;5088907;28;20477;-68
2021/12/06 00:08:02;;;;;;;30.47;20.83;;;7.70;99.90;;;;;;5089436;28;20511;-70
2021/12/06 00:10:29;;;;;;;28.37;19.23;;;7.70;99.90;;;;;;5089341;28;20484;-68
2021/12/06 00:12:56;;;;;;;32.77;21.60;;;7.90;99.90;;;;;;5089132;28;20486;-70
2021/12/06 00:15:23;;;;;;;31.50;21.17;;;8.00;99.90;;;;;;5089510;28;20896;-69
2021/12/06 00:17:51;;;;;;;32.27;19.93;;;7.80;99.90;;;;;;5090185;28;20454;-66
2021/12/06 00:20:19;;;;;;;33.40;20.80;;;7.70;99.90;;;;;;5089322;28;20486;-66
2021/12/06 00:22:46;;;;;;;31.77;20.13;;;7.70;99.90;;;;;;5089566;28;20459;-70
2021/12/06 00:25:15;;;;;;;30.27;20.57;;;7.80;99.90;;;;;;5088916;28;20475;-68
2021/12/06 00:27:42;;;;;;;31.33;19.10;;;7.80;99.90;;;;;;5089070;28;20450;-68
2021/12/06 00:30:15;;;;;;;28.50;17.70;;;7.80;99.90;;;;;;5089928;28;20446;-70
2021/12/06 00:32:42;;;;;;;29.60;17.60;;;7.80;99.90;;;;;;5089106;28;21228;-71
2021/12/06 00:35:16;;;;;;;27.10;19.10;;;7.80;99.90;;;;;;5089928;28;20475;-71
2021/12/06 00:37:54;;;;;;;27.70;17.97;;;7.90;99.90;;;;;;5089598;28;20470;-70
2021/12/06 00:40:22;;;;;;;26.03;18.17;;;8.10;99.90;;;;;;5089348;28;20493;-68
2021/12/06 00:42:49;;;;;;;28.83;18.50;;;8.00;99.90;;;;;;5089798;28;20451;-67
2021/12/06 00:45:17;;;;;;;32.43;19.83;;;7.80;99.90;;;;;;5089143;28;20551;-67
2021/12/06 00:47:44;;;;;;;30.83;18.03;;;7.80;99.90;;;;;;5089319;28;20466;-70
2021/12/06 00:50:12;;;;;;;23.63;15.70;;;7.60;99.90;;;;;;5089181;28;20445;-67
2021/12/06 00:52:39;;;;;;;25.40;16.93;;;7.40;99.90;;;;;;5088810;28;20458;-70
2021/12/06 00:55:10;;;;;;;27.70;14.97;;;7.50;99.90;;;;;;5088926;28;20478;-68
2021/12/06 00:57:37;;;;;;;24.23;16.00;;;7.50;99.90;;;;;;5089085;28;20986;-68
2021/12/06 01:00:07;;;;;;;22.23;15.80;;;7.70;99.90;;;;;;5088549;28;20482;-71
2021/12/06 01:02:34;;;;;;;22.43;15.13;;;7.60;99.90;;;;;;5088065;28;20449;-70
2021/12/06 01:05:01;;;;;;;27.27;14.73;;;7.70;99.90;;;;;;5088598;28;20598;-69
2021/12/06 01:07:28;;;;;;;20.97;14.07;;;7.70;99.90;;;;;;5088870;28;20525;-70
2021/12/06 01:09:56;;;;;;;21.60;14.40;;;7.80;99.90;;;;;;5088805;28;20980;-67
2021/12/06 01:12:24;;;;;;;22.67;14.17;;;7.90;99.90;;;;;;5089332;28;20488;-67
2021/12/06 01:14:52;;;;;;;18.33;12.20;;;8.10;99.90;;;;;;5088380;28;21002;-71
2021/12/06 01:17:19;;;;;;;23.57;14.00;;;8.20;99.90;;;;;;5089339;28;20798;-69
2021/12/06 01:19:46;;;;;;;26.27;15.10;;;8.10;99.90;;;;;;5088537;28;20490;-70
2021/12/06 01:22:26;;;;;;;22.00;13.97;;;8.10;99.90;;;;;;5088720;28;20454;-68
2021/12/06 01:24:58;;;;;;;24.27;13.80;;;8.00;99.90;;;;;;5089203;28;20490;-68
2021/12/06 01:30:29;;;;;;;24.37;16.20;;;8.20;99.90;;;;;;5067308;28;20457;-68
2021/12/06 01:33:31;;;;;;;25.13;15.50;;;8.20;99.90;;;;;;5088861;28;20457;-65
2021/12/06 01:41:30;;;;;;;36.10;25.97;;;7.60;99.90;;;;;;5088983;28;20442;-68
2021/12/06 01:44:09;;;;;;;38.00;26.30;;;7.60;99.90;;;;;;5089352;28;20512;-67
2021/12/06 01:46:38;;;;;;;33.63;24.93;;;7.70;99.90;;;;;;5088916;28;20465;-69
2021/12/06 01:49:05;;;;;;;38.70;24.63;;;7.60;99.90;;;;;;5089255;28;20446;-69
2021/12/06 01:51:33;;;;;;;36.50;21.70;;;7.50;99.90;;;;;;5093083;28;20444;-69
2021/12/06 01:54:00;;;;;;;30.47;18.10;;;7.30;99.90;;;;;;5093072;28;20441;-69
2021/12/06 01:56:28;;;;;;;23.23;15.87;;;7.40;99.90;;;;;;5092760;28;21032;-68
2021/12/06 01:58:55;;;;;;;28.50;16.97;;;7.40;99.90;;;;;;5093057;28;20595;-69
2021/12/06 02:01:24;;;;;;;27.77;18.13;;;7.50;99.90;;;;;;5092508;28;20540;-67
2021/12/06 02:03:51;;;;;;;24.70;16.70;;;7.60;99.90;;;;;;5092645;28;20514;-68
2021/12/06 02:06:18;;;;;;;29.50;18.47;;;7.70;99.90;;;;;;5092969;28;20470;-71
2021/12/06 02:08:45;;;;;;;27.00;16.70;;;7.80;99.90;;;;;;5092154;28;20451;-68
2021/12/06 02:11:13;;;;;;;24.87;17.80;;;7.60;99.90;;;;;;5092471;28;20466;-67
2021/12/06 02:13:46;;;;;;;25.50;17.47;;;7.50;99.90;;;;;;5092761;28;20528;-69
2021/12/06 02:16:15;;;;;;;25.83;17.37;;;7.60;99.90;;;;;;5092718;28;20477;-69
2021/12/06 02:18:49;;;;;;;31.10;18.30;;;7.80;99.90;;;;;;5092919;28;20450;-69
2021/12/06 02:21:28;;;;;;;28.27;18.70;;;8.00;99.90;;;;;;5092630;28;20577;-68
2021/12/06 02:23:56;;;;;;;29.20;18.23;;;8.00;99.90;;;;;;5092101;28;20943;-69
2021/12/06 02:26:24;;;;;;;29.40;18.43;;;8.00;99.90;;;;;;5092567;28;20475;-67
2021/12/06 02:28:51;;;;;;;26.33;18.40;;;8.10;99.90;;;;;;5092685;28;20836;-69
2021/12/06 02:31:20;;;;;;;27.17;19.83;;;8.20;99.90;;;;;;5092498;28;20453;-67
2021/12/06 02:33:49;;;;;;;30.50;20.97;;;8.20;99.90;;;;;;5092456;28;20451;-66
2021/12/06 02:36:16;;;;;;;31.57;20.47;;;7.90;99.90;;;;;;5092537;28;20928;-69
2021/12/06 02:38:45;;;;;;;30.57;20.27;;;7.80;99.90;;;;;;5091876;28;20458;-66
2021/12/06 02:41:12;;;;;;;31.07;20.30;;;7.80;99.90;;;;;;5091980;28;21047;-69
2021/12/06 02:43:40;;;;;;;31.00;20.67;;;7.80;99.90;;;;;;5092064;28;20506;-67
2021/12/06 02:46:08;;;;;;;32.47;20.50;;;7.80;99.90;;;;;;5091889;28;20981;-67
2021/12/06 02:48:35;;;;;;;34.97;20.77;;;7.70;99.90;;;;;;5091802;28;20508;-67
2021/12/06 02:51:05;;;;;;;48.27;22.00;;;7.70;99.90;;;;;;5091890;28;20461;-69
2021/12/06 02:53:35;;;;;;;32.40;21.70;;;7.90;99.90;;;;;;5091727;28;20503;-69
2021/12/06 02:56:17;;;;;;;33.37;22.83;;;7.80;99.90;;;;;;5091979;28;20465;-67
2021/12/06 02:58:56;;;;;;;30.50;20.90;;;7.60;99.90;;;;;;5091912;28;20461;-68
2021/12/06 03:01:28;;;;;;;32.40;20.13;;;7.60;99.90;;;;;;5090675;28;20521;-68
2021/12/06 03:03:55;;;;;;;33.90;21.27;;;7.50;99.90;;;;;;5091052;28;20450;-67
2021/12/06 03:06:23;;;;;;;32.93;20.03;;;7.60;99.90;;;;;;5091263;28;20484;-66
2021/12/06 03:08:56;;;;;;;31.30;20.43;;;7.70;99.90;;;;;;5091750;28;20451;-67
2021/12/06 03:11:29;;;;;;;30.80;20.57;;;7.70;99.90;;;;;;5091244;28;20442;-69
2021/12/06 03:13:57;;;;;;;30.60;20.93;;;7.90;99.90;;;;;;5091298;28;20826;-70
2021/12/06 03:16:24;;;;;;;30.00;20.83;;;7.70;99.90;;;;;;5091507;28;20471;-69
2021/12/06 03:18:53;;;;;;;28.30;18.93;;;7.80;99.90;;;;;;5091494;28;20848;-70
2021/12/06 03:21:23;;;;;;;33.20;20.67;;;7.90;99.90;;;;;;5091534;28;20490;-68
2021/12/06 03:23:50;;;;;;;37.63;21.03;;;7.80;99.90;;;;;;5091223;28;20528;-69
2021/12/06 03:26:17;;;;;;;34.27;21.33;;;7.50;99.90;;;;;;5091165;28;20474;-68
2021/12/06 03:28:47;;;;;;;32.80;20.30;;;7.70;99.90;;;;;;5091348;28;20456;-67
2021/12/06 03:31:15;;;;;;;28.53;19.53;;;7.80;99.90;;;;;;5091309;28;20595;-66
2021/12/06 03:33:46;;;;;;;32.23;18.97;;;7.90;99.90;;;;;;5091453;28;20450;-67
2021/12/06 03:36:14;;;;;;;34.20;20.13;;;8.00;99.90;;;;;;5091088;28;20812;-69
2021/12/06 03:38:41;;;;;;;27.10;18.50;;;7.90;99.90;;;;;;5091176;28;20520;-66
2021/12/06 03:41:10;;;;;;;29.17;18.37;;;8.00;99.90;;;;;;5090772;28;20487;-68
2021/12/06 03:43:39;;;;;;;24.50;17.00;;;8.00;99.90;;;;;;5091042;28;20451;-70
2021/12/06 03:46:08;;;;;;;23.73;17.57;;;8.10;99.90;;;;;;5090865;28;20482;-68
2021/12/06 03:48:35;;;;;;;25.20;18.47;;;8.20;99.90;;;;;;5091149;28;20880;-67
2021/12/06 03:51:02;;;;;;;31.97;19.63;;;8.30;99.90;;;;;;5090923;28;20504;-69
2021/12/06 03:53:30;;;;;;;29.50;18.23;;;8.30;99.90;;;;;;5090834;28;20454;-66
2021/12/06 03:55:57;;;;;;;27.40;17.63;;;8.30;99.90;;;;;;5090804;28;20470;-70
2021/12/06 03:58:25;;;;;;;26.27;16.73;;;8.20;99.90;;;;;;5090530;28;20473;-68
2021/12/06 04:00:52;;;;;;;26.97;19.90;;;8.30;99.90;;;;;;5090026;28;20487;-70
2021/12/06 04:03:23;;;;;;;27.27;18.47;;;8.50;99.90;;;;;;5090520;28;20463;-67
2021/12/06 04:05:50;;;;;;;24.67;16.80;;;8.50;99.90;;;;;;5089895;28;20475;-70
2021/12/06 04:08:17;;;;;;;23.33;16.80;;;8.60;99.90;;;;;;5090354;28;20537;-68
2021/12/06 04:10:44;;;;;;;26.23;16.30;;;8.60;99.90;;;;;;5090545;28;20500;-67
2021/12/06 04:13:12;;;;;;;25.00;17.00;;;8.70;99.90;;;;;;5089316;28;20487;-68
2021/12/06 04:15:41;;;;;;;28.80;16.53;;;8.70;99.90;;;;;;5090381;28;20876;-66
2021/12/06 04:18:08;;;;;;;22.43;16.30;;;8.70;99.90;;;;;;5090508;28;20956;-66
2021/12/06 04:20:38;;;;;;;25.70;15.80;;;8.80;99.90;;;;;;5090195;28;20483;-68
2021/12/06 04:23:08;;;;;;;24.37;16.23;;;8.80;99.90;;;;;;5090280;28;20992;-66
2021/12/06 04:25:37;;;;;;;25.20;17.63;;;8.80;99.90;;;;;;5089943;28;20476;-66
2021/12/06 04:28:07;;;;;;;27.07;16.43;;;9.00;99.90;;;;;;5090123;28;20459;-69
2021/12/06 04:30:36;;;;;;;20.90;15.50;;;9.00;99.90;;;;;;5090193;28;20451;-66
2021/12/06 04:33:03;;;;;;;24.97;15.77;;;8.90;99.90;;;;;;5089854;28;20516;-71
2021/12/06 04:35:32;;;;;;;24.77;17.23;;;9.00;99.90;;;;;;5089761;28;20471;-69
2021/12/06 04:38:00;;;;;;;27.07;15.80;;;8.90;99.90;;;;;;5090150;28;20516;-70
2021/12/06 04:40:28;;;;;;;21.20;15.50;;;9.10;99.90;;;;;;5090088;28;20527;-68
2021/12/06 04:42:55;;;;;;;26.00;16.60;;;9.00;99.90;;;;;;5089730;28;20594;-70
2021/12/06 04:45:23;;;;;;;24.37;16.00;;;9.00;99.90;;;;;;5089368;28;20480;-66
2021/12/06 04:47:51;;;;;;;24.63;15.90;;;9.00;99.90;;;;;;5089949;28;20451;-67
2021/12/06 04:50:23;;;;;;;24.40;15.83;;;9.00;99.90;;;;;;5089865;28;20533;-67
2021/12/06 04:52:50;;;;;;;21.90;15.40;;;9.00;99.90;;;;;;5090093;28;20447;-69
2021/12/06 04:55:26;;;;;;;24.07;15.97;;;9.10;99.90;;;;;;5089949;28;20476;-72
2021/12/06 04:57:53;;;;;;;24.10;16.50;;;9.20;99.90;;;;;;5089533;28;20690;-69
2021/12/06 05:00:27;;;;;;;26.10;15.37;;;9.20;99.90;;;;;;5089447;28;20490;-66
2021/12/06 05:02:55;;;;;;;23.27;14.23;;;10.80;99.90;;;;;;5089827;28;20459;-67
2021/12/06 05:05:25;;;;;;;23.80;14.67;;;9.30;99.90;;;;;;5089240;28;20513;-70
2021/12/06 05:07:57;;;;;;;22.47;15.30;;;9.20;99.90;;;;;;5089702;28;20448;-68
2021/12/06 05:10:26;;;;;;;26.17;15.47;;;9.20;99.90;;;;;;5089209;28;20454;-71
2021/12/06 05:12:53;;;;;;;27.37;16.50;;;9.30;99.90;;;;;;5088989;28;20480;-67
2021/12/06 05:15:21;;;;;;;27.20;17.63;;;9.20;99.90;;;;;;5089484;28;20476;-71
2021/12/06 05:17:48;;;;;;;24.00;16.57;;;8.90;99.90;;;;;;5089515;28;20451;-69
2021/12/06 05:20:17;;;;;;;29.07;18.97;;;9.00;99.90;;;;;;5089222;28;20504;-69
2021/12/06 05:22:45;;;;;;;23.73;16.67;;;8.90;99.90;;;;;;5089383;28;20455;-67
2021/12/06 05:25:13;;;;;;;26.00;18.10;;;9.00;99.90;;;;;;5089007;28;20552;-71
2021/12/06 05:27:42;;;;;;;24.83;16.50;;;9.00;99.90;;;;;;5089155;28;20879;-67
2021/12/06 05:30:13;;;;;;;24.67;16.17;;;9.00;99.90;;;;;;5089447;28;20947;-69
2021/12/06 05:32:41;;;;;;;23.60;17.90;;;9.10;99.90;;;;;;5089508;28;20568;-69
2021/12/06 05:35:10;;;;;;;24.90;16.87;;;9.00;99.90;;;;;;5089120;28;20499;-68
2021/12/06 05:37:41;;;;;;;22.57;15.33;;;9.00;99.90;;;;;;5089528;28;20463;-70
2021/12/06 05:40:11;;;;;;;24.77;16.30;;;9.00;99.90;;;;;;5089196;28;20513;-67
2021/12/06 05:42:39;;;;;;;23.60;15.13;;;8.90;99.90;;;;;;5088915;28;20451;-68
2021/12/06 05:45:10;;;;;;;23.83;15.87;;;8.90;99.90;;;;;;5089284;28;20476;-68
2021/12/06 05:47:37;;;;;;;24.70;16.40;;;8.90;99.90;;;;;;5089321;28;20481;-66
2021/12/06 05:50:06;;;;;;;24.43;15.87;;;8.80;99.90;;;;;;5088894;28;20500;-70
2021/12/06 05:52:34;;;;;;;26.07;15.27;;;8.90;99.90;;;;;;5088994;28;20931;-70
2021/12/06 05:55:01;;;;;;;24.80;16.70;;;8.90;99.90;;;;;;5089132;28;20478;-68
2021/12/06 05:57:28;;;;;;;20.00;15.27;;;8.90;99.90;;;;;;5088845;28;20846;-68
2021/12/06 05:59:55;;;;;;;21.60;14.33;;;9.00;99.90;;;;;;5089069;28;20466;-68
2021/12/06 06:02:24;;;;;;;21.57;14.83;;;9.00;99.90;;;;;;5089063;28;20490;-71
2021/12/06 06:04:51;;;;;;;22.40;12.70;;;9.10;99.90;;;;;;5088571;28;20520;-67
2021/12/06 06:07:18;;;;;;;23.33;15.23;;;9.30;99.90;;;;;;5088802;28;20452;-68
2021/12/06 06:09:45;;;;;;;21.00;12.90;;;9.30;99.90;;;;;;5088734;28;20520;-68
2021/12/06 06:12:12;;;;;;;19.33;13.17;;;9.30;99.90;;;;;;5088514;28;20552;-70
2021/12/06 06:14:40;;;;;;;21.00;13.20;;;9.30;99.90;;;;;;5088346;28;20516;-68
2021/12/06 06:17:11;;;;;;;20.83;13.80;;;9.30;99.90;;;;;;5088864;28;20490;-68
2021/12/06 06:19:42;;;;;;;19.97;13.67;;;9.20;99.90;;;;;;5088801;28;20452;-68
2021/12/06 06:22:09;;;;;;;22.17;13.97;;;9.20;99.90;;;;;;5088684;28;20498;-68
2021/12/06 06:24:36;;;;;;;16.97;12.40;;;9.30;99.90;;;;;;5088979;28;20497;-67
2021/12/06 06:27:04;;;;;;;18.53;13.57;;;9.50;99.90;;;;;;5088716;28;20986;-68
2021/12/06 06:29:32;;;;;;;18.73;14.00;;;9.70;99.90;;;;;;5088919;28;20455;-71
2021/12/06 06:31:59;;;;;;;21.17;13.90;;;9.90;99.90;;;;;;5088580;28;20535;-67
2021/12/06 06:34:26;;;;;;;19.10;12.60;;;9.90;99.90;;;;;;5088436;28;20452;-65
2021/12/06 06:36:56;;;;;;;21.87;12.90;;;10.10;99.90;;;;;;5089587;28;20521;-71
2021/12/06 06:39:23;;;;;;;18.87;11.83;;;10.20;99.90;;;;;;5092137;28;20463;-67
2021/12/06 06:41:52;;;;;;;18.33;11.63;;;10.20;99.90;;;;;;5092118;28;20536;-68
2021/12/06 06:44:21;;;;;;;17.13;12.40;;;10.30;99.90;;;;;;5092209;28;20455;-67
2021/12/06 06:46:49;;;;;;;17.20;11.30;;;10.40;99.90;;;;;;5091822;28;20570;-69
2021/12/06 06:49:17;;;;;;;18.77;12.80;;;10.50;99.90;;;;;;5091672;28;20509;-70
2021/12/06 06:51:46;;;;;;;18.57;11.50;;;10.50;99.90;;;;;;5092135;28;20444;-70
2021/12/06 06:54:15;;;;;;;17.33;11.60;;;10.50;99.90;;;;;;5092023;28;20452;-66
2021/12/06 06:56:42;;;;;;;16.83;11.07;;;11.40;99.90;;;;;;5091941;28;20964;-68
2021/12/06 06:59:09;;;;;;;15.97;9.33;;;10.50;99.90;;;;;;5091747;28;20448;-70
2021/12/06 07:01:36;;;;;;;17.40;11.37;;;10.40;99.90;;;;;;5091908;28;20560;-69
2021/12/06 07:04:03;;;;;;;15.97;9.27;;;10.50;99.90;;;;;;5091821;28;20448;-70
2021/12/06 07:06:30;;;;;;;14.37;9.97;;;10.50;99.90;;;;;;5091726;28;20480;-70
2021/12/06 07:08:58;;;;;;;15.47;10.40;;;10.70;99.90;;;;;;5091596;28;20488;-69
2021/12/06 07:11:28;;;;;;;15.90;10.10;;;10.80;99.90;;;;;;5091168;28;21001;-65
2021/12/06 07:13:55;;;;;;;13.17;9.00;;;10.70;99.90;;;;;;5091504;28;20448;-64
2021/12/06 07:16:23;;;;;;;14.83;9.50;;;10.80;99.90;;;;;;5091639;28;20581;-68
2021/12/06 07:18:51;;;;;;;13.37;8.57;;;10.90;99.90;;;;;;5091312;28;20836;-70
2021/12/06 07:21:18;;;;;;;12.63;8.03;;;11.10;99.90;;;;;;5090951;28;20487;-66
2021/12/06 07:23:46;;;;;;;14.90;8.83;;;11.20;99.90;;;;;;5091047;28;20937;-71
2021/12/06 07:26:16;;;;;;;13.33;8.93;;;11.40;99.90;;;;;;5090890;28;20819;-70
2021/12/06 07:28:46;;;;;;;13.40;9.30;;;11.50;99.90;;;;;;5091260;28;20444;-70
2021/12/06 07:31:14;;;;;;;11.70;7.70;;;11.50;99.90;;;;;;5091397;28;20448;-70
2021/12/06 07:33:43;;;;;;;12.37;8.30;;;11.40;99.90;;;;;;5090742;28;20463;-70
2021/12/06 07:36:11;;;;;;;12.77;8.33;;;11.30;99.90;;;;;;5091160;28;20472;-72
2021/12/06 07:38:39;;;;;;;12.80;8.90;;;11.10;99.90;;;;;;5090880;28;20919;-71
2021/12/06 07:41:08;;;;;;;12.90;7.93;;;11.00;99.90;;;;;;5090954;28;21273;-71
2021/12/06 07:43:36;;;;;;;15.37;9.33;;;10.90;99.90;;;;;;5091100;28;20456;-65
2021/12/06 07:46:06;;;;;;;13.87;8.40;;;10.80;99.90;;;;;;5091192;28;20468;-67
2021/12/06 07:48:34;;;;;;;11.07;7.23;;;10.70;99.90;;;;;;5090626;28;20464;-72
2021/12/06 07:51:01;;;;;;;9.77;6.80;;;10.70;99.90;;;;;;5091237;28;20509;-69
2021/12/06 07:53:29;;;;;;;13.67;8.70;;;10.70;99.90;;;;;;5090662;28;20452;-75
2021/12/06 07:55:57;;;;;;;12.70;8.07;;;10.60;99.90;;;;;;5090678;28;20540;-76
2021/12/06 07:58:24;;;;;;;14.63;8.40;;;10.60;99.90;;;;;;5090970;28;20932;-67
2021/12/06 08:00:52;;;;;;;14.70;9.00;;;10.60;99.90;;;;;;5090576;28;20829;-73
2021/12/06 08:03:22;;;;;;;15.87;8.13;;;10.60;99.90;;;;;;5090378;28;20446;-71
2021/12/06 08:05:52;;;;;;;16.13;8.33;;;10.60;99.90;;;;;;5090295;28;20855;-68
2021/12/06 08:08:23;;;;;;;14.67;7.60;;;10.60;99.90;;;;;;5090347;28;20964;-67
2021/12/06 08:10:52;;;;;;;12.00;7.83;;;10.60;99.90;;;;;;5090194;28;20531;-67
2021/12/06 08:13:24;;;;;;;12.07;8.40;;;10.60;99.90;;;;;;5090292;28;20479;-70
2021/12/06 08:15:54;;;;;;;13.03;8.30;;;10.70;99.90;;;;;;5090086;28;20475;-72
2021/12/06 08:18:23;;;;;;;13.23;7.87;;;10.70;99.90;;;;;;5090022;28;20448;-69
2021/12/06 08:20:51;;;;;;;13.67;8.50;;;10.70;99.90;;;;;;5090190;28;20456;-69
2021/12/06 08:23:18;;;;;;;12.97;8.00;;;10.60;99.90;;;;;;5090191;28;20488;-69
2021/12/06 08:25:47;;;;;;;11.70;7.70;;;10.70;99.90;;;;;;5089985;28;21037;-67
2021/12/06 08:28:16;;;;;;;11.27;8.23;;;10.70;99.90;;;;;;5089616;28;20460;-66
2021/12/06 08:30:43;;;;;;;12.97;8.70;;;10.70;99.90;;;;;;5089695;28;20458;-68
2021/12/06 08:33:11;;;;;;;11.33;7.80;;;10.80;99.90;;;;;;5089783;28;20577;-69
2021/12/06 08:35:42;;;;;;;16.23;10.50;;;10.80;99.90;;;;;;5089759;28;20529;-69
2021/12/06 08:38:10;;;;;;;13.90;7.37;;;11.00;99.90;;;;;;5089862;28;20452;-66
2021/12/06 08:40:40;;;;;;;12.70;7.03;;;11.20;99.90;;;;;;5089689;28;20534;-68
2021/12/06 08:43:07;;;;;;;10.63;6.10;;;11.30;99.90;;;;;;5089670;28;20991;-77
2021/12/06 08:45:36;;;;;;;11.63;7.37;;;11.30;99.90;;;;;;5088350;28;20611;-71
2021/12/06 08:48:04;;;;;;;11.47;6.40;;;11.30;99.90;;;;;;5089664;28;20814;-68
2021/12/06 08:50:32;;;;;;;12.50;7.53;;;11.40;99.90;;;;;;5089724;28;20448;-69
2021/12/06 08:53:05;;;;;;;11.63;6.80;;;11.50;99.90;;;;;;5089830;28;20460;-69
2021/12/06 08:55:32;;;;;;;11.50;7.57;;;11.60;99.90;;;;;;5089593;28;20468;-67
2021/12/06 08:58:00;;;;;;;9.60;6.40;;;11.60;99.90;;;;;;5089432;28;20521;-68
2021/12/06 09:00:29;;;;;;;13.50;8.07;;;11.50;99.90;;;;;;5089018;28;20508;-68
2021/12/06 09:02:57;;;;;;;9.97;6.10;;;11.50;99.90;;;;;;5089136;28;20484;-69
2021/12/06 09:05:29;;;;;;;10.07;6.50;;;11.50;99.90;;;;;;5089311;28;20564;-67
2021/12/06 09:07:56;;;;;;;9.50;6.83;;;11.40;99.90;;;;;;5089525;28;20929;-68
2021/12/06 09:10:25;;;;;;;10.77;7.30;;;11.60;99.90;;;;;;5089118;28;20935;-71
2021/12/06 09:12:52;;;;;;;11.80;7.87;;;11.80;99.90;;;;;;5089111;28;20484;-69
2021/12/06 09:15:21;;;;;;;11.50;7.30;;;11.90;99.90;;;;;;5089294;28;20468;-70
2021/12/06 09:17:49;;;;;;;11.70;5.97;;;12.10;99.90;;;;;;5089383;28;20452;-69
2021/12/06 09:20:25;;;;;;;10.30;5.80;;;12.10;99.90;;;;;;5089211;28;20444;-69
2021/12/06 09:22:53;;;;;;;9.90;6.40;;;12.20;99.90;;;;;;5089090;28;20510;-71
2021/12/06 09:25:20;;;;;;;11.60;7.90;;;12.30;99.90;;;;;;5089025;28;20878;-67
2021/12/06 09:27:50;;;;;;;10.27;6.70;;;12.10;99.90;;;;;;5089134;28;20871;-69
2021/12/06 09:30:21;;;;;;;10.00;6.50;;;12.30;99.90;;;;;;5089294;28;20867;-68
2021/12/06 09:32:48;;;;;;;9.43;6.47;;;12.20;99.90;;;;;;5089299;28;20940;-69
2021/12/06 09:35:21;;;;;;;10.27;6.33;;;12.30;99.90;;;;;;5088999;28;20479;-68
2021/12/06 09:37:48;;;;;;;12.80;7.20;;;12.20;99.90;;;;;;5089338;28;20502;-69
2021/12/06 09:40:16;;;;;;;9.70;5.77;;;12.40;99.90;;;;;;5089054;28;20495;-68
2021/12/06 09:42:43;;;;;;;10.30;6.53;;;12.10;99.90;;;;;;5089294;28;20984;-69
2021/12/06 09:45:15;;;;;;;8.97;6.10;;;12.20;99.90;;;;;;5089081;28;20547;-67
2021/12/06 09:47:49;;;;;;;11.50;6.53;;;12.20;99.90;;;;;;5089171;28;20528;-69
2021/12/06 09:50:18;;;;;;;10.60;6.73;;;12.40;99.90;;;;;;5088857;28;20508;-70
2021/12/06 09:52:45;;;;;;;11.43;6.87;;;12.50;99.90;;;;;;5089106;28;20444;-68
2021/12/06 09:55:12;;;;;;;11.93;6.20;;;12.70;99.90;;;;;;5088970;28;20472;-71
2021/12/06 09:57:40;;;;;;;10.50;5.87;;;12.70;99.90;;;;;;5089879;28;20448;-69
2021/12/06 10:00:13;;;;;;;10.70;5.77;;;12.90;99.90;;;;;;5089378;28;20452;-67
2021/12/06 10:02:40;;;;;;;9.67;6.90;;;13.20;99.90;;;;;;5088891;28;20517;-68
2021/12/06 10:05:08;;;;;;;12.03;7.10;;;13.40;99.90;;;;;;5088859;28;20467;-70
2021/12/06 10:07:36;;;;;;;9.90;7.27;;;13.50;99.90;;;;;;5089005;28;20451;-69
2021/12/06 10:10:05;;;;;;;11.17;7.87;;;13.50;99.90;;;;;;5088466;28;20460;-69
2021/12/06 10:12:33;;;;;;;11.97;7.67;;;13.60;99.90;;;;;;5090451;28;20893;-69
2021/12/06 10:15:02;;;;;;;10.13;7.97;;;13.60;99.90;;;;;;5092349;28;20475;-67
2021/12/06 10:17:32;;;;;;;13.20;9.43;;;13.70;99.90;;;;;;5092569;28;20534;-72
2021/12/06 10:20:00;;;;;;;12.00;8.43;;;13.50;99.90;;;;;;5092588;28;20451;-67
2021/12/06 10:22:27;;;;;;;11.17;7.33;;;13.50;99.90;;;;;;5092719;28;20490;-69
2021/12/06 10:25:01;;;;;;;10.73;7.43;;;13.40;99.90;;;;;;5092375;28;20566;-69
2021/12/06 10:27:28;;;;;;;11.47;7.40;;;13.50;99.90;;;;;;5092451;28;20446;-68
2021/12/06 10:30:00;;;;;;;10.80;7.30;;;13.50;99.90;;;;;;5092472;28;20466;-67
2021/12/06 10:32:32;;;;;;;11.97;6.97;;;13.40;99.90;;;;;;5092068;28;20440;-66
2021/12/06 10:35:02;;;;;;;10.17;6.80;;;13.50;99.90;;;;;;5092451;28;20510;-65
2021/12/06 10:37:34;;;;;;;15.40;9.30;;;13.60;99.90;;;;;;5092444;28;20926;-66
2021/12/06 10:40:02;;;;;;;11.23;7.90;;;13.60;99.90;;;;;;5092049;28;20460;-68
2021/12/06 10:42:32;;;;;;;13.03;7.50;;;13.50;99.90;;;;;;5092073;28;20556;-68
2021/12/06 10:45:06;;;;;;;12.40;7.53;;;13.40;99.90;;;;;;5091978;28;20476;-67
2021/12/06 10:47:35;;;;;;;11.57;8.10;;;13.40;99.90;;;;;;5092269;28;20520;-67
2021/12/06 10:50:15;;;;;;;14.87;8.17;;;13.40;99.90;;;;;;5092163;28;20459;-67
2021/12/06 10:52:50;;;;;;;10.93;8.47;;;13.30;99.90;;;;;;5091936;28;20455;-67
2021/12/06 10:55:19;;;;;;;13.23;8.87;;;13.20;99.90;;;;;;5092207;28;20467;-67
2021/12/06 10:57:54;;;;;;;12.50;8.47;;;13.30;99.90;;;;;;5092045;28;20459;-68
2021/12/06 11:00:41;;;;;;;11.07;7.20;;;13.30;99.90;;;;;;5091913;28;20956;-69
2021/12/06 11:03:23;;;;;;;12.63;8.07;;;13.10;99.90;;;;;;5091849;28;20491;-67
2021/12/06 11:05:54;;;;;;;15.43;8.63;;;13.20;99.90;;;;;;5091371;28;20483;-68
2021/12/06 11:08:22;;;;;;;13.43;8.97;;;13.10;99.90;;;;;;5091569;28;20456;-67
2021/12/06 11:10:53;;;;;;;14.07;8.80;;;13.10;99.90;;;;;;5091807;28;20516;-70
2021/12/06 11:13:24;;;;;;;12.83;9.10;;;13.00;99.90;;;;;;5091231;28;20479;-68
2021/12/06 11:16:01;;;;;;;12.53;8.60;;;12.70;99.90;;;;;;5091168;28;21064;-67
2021/12/06 11:18:40;;;;;;;12.80;8.67;;;12.60;99.90;;;;;;5091846;28;20529;-68
2021/12/06 11:21:16;;;;;;;15.00;8.20;;;12.50;99.90;;;;;;5091675;28;20499;-68
2021/12/06 11:24:10;;;;;;;12.90;8.70;;;12.60;99.90;;;;;;5090769;28;20488;-68
2021/12/06 11:26:41;;;;;;;13.00;8.10;;;12.40;99.90;;;;;;5091407;28;20476;-66
2021/12/06 11:29:13;;;;;;;11.60;8.30;;;12.40;99.90;;;;;;5091610;28;20448;-66
2021/12/06 11:31:43;;;;;;;15.80;11.13;;;12.50;99.90;;;;;;5091327;28;20953;-68
2021/12/06 11:34:11;;;;;;;14.40;9.10;;;12.40;99.90;;;;;;5091052;28;20448;-68
2021/12/06 11:36:42;;;;;;;13.60;9.90;;;12.40;99.90;;;;;;5091004;28;20473;-67
2021/12/06 11:39:12;;;;;;;17.43;9.60;;;12.20;99.90;;;;;;5091150;28;20482;-67
2021/12/06 11:41:43;;;;;;;13.20;8.57;;;12.10;99.90;;;;;;5091082;28;20452;-66
2021/12/06 11:44:16;;;;;;;11.70;8.80;;;12.20;99.90;;;;;;5090959;28;20484;-68
2021/12/06 11:46:44;;;;;;;19.50;10.30;;;12.30;99.90;;;;;;5090517;28;20468;-68
2021/12/06 11:49:28;;;;;;;14.77;9.50;;;12.30;99.90;;;;;;5090759;28;20465;-67
2021/12/06 11:51:55;;;;;;;14.23;9.00;;;12.50;99.90;;;;;;5091137;28;20447;-67
2021/12/06 11:54:22;;;;;;;14.70;10.10;;;12.60;99.90;;;;;;5090752;28;20472;-64
2021/12/06 11:56:51;;;;;;;13.70;9.37;;;12.40;99.90;;;;;;5090842;28;20963;-73
2021/12/06 11:59:20;;;;;;;13.50;9.87;;;12.50;99.90;;;;;;5090654;28;20452;-79
2021/12/06 12:01:51;;;;;;;20.83;12.30;;;12.60;99.90;;;;;;5090480;28;20459;-71
2021/12/06 12:04:21;;;;;;;15.67;10.07;;;12.60;99.90;;;;;;5090090;28;20511;-65
2021/12/06 12:06:56;;;;;;;14.17;9.30;;;12.60;99.90;;;;;;5090657;28;20480;-70
2021/12/06 12:09:28;;;;;;;12.43;9.00;;;12.90;99.90;;;;;;5090785;28;20534;-69
2021/12/06 12:11:59;;;;;;;14.93;9.20;;;13.30;99.90;;;;;;5090161;28;20492;-68
2021/12/06 12:14:31;;;;;;;13.73;9.13;;;13.20;99.90;;;;;;5090195;28;20542;-69
2021/12/06 12:16:59;;;;;;;15.10;9.60;;;13.10;99.90;;;;;;5090512;28;20452;-69
2021/12/06 12:19:26;;;;;;;17.13;10.37;;;13.00;99.90;;;;;;5090587;28;20456;-69
2021/12/06 12:21:55;;;;;;;12.53;9.73;;;13.10;99.90;;;;;;5090342;28;20936;-70
2021/12/06 12:24:22;;;;;;;15.27;9.50;;;13.00;99.90;;;;;;5090220;28;20492;-69
2021/12/06 12:27:07;;;;;;;12.30;8.87;;;12.80;99.90;;;;;;5090262;28;20883;-68
2021/12/06 12:29:34;;;;;;;12.00;8.40;;;12.80;99.90;;;;;;5090317;28;20483;-76
2021/12/06 12:32:06;;;;;;;16.07;9.70;;;12.90;99.90;;;;;;5090034;28;20452;-74
2021/12/06 12:34:37;;;;;;;16.00;11.27;;;12.90;99.90;;;;;;5088977;28;20981;-75
2021/12/06 12:37:08;;;;;;;17.40;13.47;;;12.60;99.90;;;;;;5089974;28;20456;-76
2021/12/06 12:39:36;;;;;;;15.90;10.63;;;12.50;99.90;;;;;;5090076;28;20795;-74
2021/12/06 12:42:06;;;;;;;11.43;8.50;;;12.60;99.90;;;;;;5090001;28;20498;-74
2021/12/06 12:44:44;;;;;;;15.00;10.03;;;12.70;99.90;;;;;;5089578;28;20536;-77
2021/12/06 12:47:18;;;;;;;15.00;11.30;;;12.80;99.90;;;;;;5089867;28;20455;-76
2021/12/06 12:49:48;;;;;;;15.77;10.60;;;12.50;99.90;;;;;;5089717;28;20447;-75
2021/12/06 12:52:27;;;;;;;15.50;9.93;;;12.30;99.90;;;;;;5089986;28;20452;-77
2021/12/06 12:54:57;;;;;;;14.93;10.27;;;12.10;99.90;;;;;;5090118;28;20868;-77